sensor_id;sensor_type;location;lat;lon;timestamp;P1;durP1;ratioP1;P2;durP2;ratioP2
52488;SDS011;38399;52.236;104.280;2022-10-22T00:01:43;25.10;;;11.80;;
52488;SDS011;38399;52.236;104.280;2022-10-22T00:04:10;19.58;;;11.23;;
52488;SDS011;38399;52.236;104.280;2022-10-22T00:06:39;20.33;;;10.65;;
52488;SDS011;38399;52.236;104.280;2022-10-22T00:09:08;20.45;;;10.95;;
52488;SDS011;38399;52.236;104.280;2022-10-22T00:11:35;25.88;;;11.57;;
52488;SDS011;38399;52.236;104.280;2022-10-22T00:14:02;27.02;;;10.48;;
52488;SDS011;38399;52.236;104.280;2022-10-22T00:16:29;22.08;;;9.68;;
52488;SDS011;38399;52.236;104.280;2022-10-22T00:18:55;24.85;;;10.75;;
52488;SDS011;38399;52.236;104.280;2022-10-22T00:21:22;19.40;;;10.15;;
52488;SDS011;38399;52.236;104.280;2022-10-22T00:23:49;19.20;;;9.95;;
52488;SDS011;38399;52.236;104.280;2022-10-22T00:26:16;20.55;;;11.27;;
52488;SDS011;38399;52.236;104.280;2022-10-22T00:28:42;21.83;;;10.55;;
52488;SDS011;38399;52.236;104.280;2022-10-22T00:31:09;23.92;;;9.82;;
52488;SDS011;38399;52.236;104.280;2022-10-22T00:33:35;23.92;;;10.70;;
52488;SDS011;38399;52.236;104.280;2022-10-22T00:38:29;26.48;;;13.15;;
52488;SDS011;38399;52.236;104.280;2022-10-22T00:40:55;23.85;;;13.20;;
52488;SDS011;38399;52.236;104.280;2022-10-22T00:43:22;27.05;;;12.52;;
52488;SDS011;38399;52.236;104.280;2022-10-22T00:45:49;29.33;;;13.73;;
52488;SDS011;38399;52.236;104.280;2022-10-22T00:48:18;24.77;;;12.38;;
52488;SDS011;38399;52.236;104.280;2022-10-22T00:50:49;24.90;;;12.60;;
52488;SDS011;38399;52.236;104.280;2022-10-22T00:53:24;24.13;;;11.85;;
52488;SDS011;38399;52.236;104.280;2022-10-22T00:55:55;23.00;;;10.80;;
52488;SDS011;38399;52.236;104.280;2022-10-22T00:58:23;23.13;;;10.07;;
52488;SDS011;38399;52.236;104.280;2022-10-22T01:00:55;25.08;;;9.90;;
52488;SDS011;38399;52.236;104.280;2022-10-22T01:03:22;19.02;;;10.80;;
52488;SDS011;38399;52.236;104.280;2022-10-22T01:11:18;22.70;;;11.13;;
52488;SDS011;38399;52.236;104.280;2022-10-22T01:13:56;22.27;;;11.50;;
52488;SDS011;38399;52.236;104.280;2022-10-22T01:22:18;21.10;;;12.13;;
52488;SDS011;38399;52.236;104.280;2022-10-22T01:28:18;23.48;;;13.02;;
52488;SDS011;38399;52.236;104.280;2022-10-22T01:31:00;21.92;;;12.05;;
52488;SDS011;38399;52.236;104.280;2022-10-22T01:33:28;20.02;;;12.40;;
52488;SDS011;38399;52.236;104.280;2022-10-22T01:35:56;25.77;;;11.48;;
52488;SDS011;38399;52.236;104.280;2022-10-22T01:38:24;21.92;;;12.00;;
52488;SDS011;38399;52.236;104.280;2022-10-22T01:40:51;23.58;;;13.20;;
52488;SDS011;38399;52.236;104.280;2022-10-22T01:43:19;19.27;;;11.13;;
52488;SDS011;38399;52.236;104.280;2022-10-22T01:45:47;18.17;;;10.98;;
52488;SDS011;38399;52.236;104.280;2022-10-22T02:04:30;15.30;;;9.07;;
52488;SDS011;38399;52.236;104.280;2022-10-22T02:07:05;17.05;;;10.18;;
52488;SDS011;38399;52.236;104.280;2022-10-22T02:09:33;16.75;;;10.18;;
52488;SDS011;38399;52.236;104.280;2022-10-22T02:12:02;15.07;;;9.07;;
52488;SDS011;38399;52.236;104.280;2022-10-22T02:14:31;11.05;;;7.20;;
52488;SDS011;38399;52.236;104.280;2022-10-22T02:17:01;9.52;;;5.90;;
52488;SDS011;38399;52.236;104.280;2022-10-22T02:22:17;8.35;;;5.93;;
52488;SDS011;38399;52.236;104.280;2022-10-22T02:24:44;10.88;;;5.57;;
52488;SDS011;38399;52.236;104.280;2022-10-22T02:27:19;9.68;;;4.80;;
52488;SDS011;38399;52.236;104.280;2022-10-22T02:32:25;6.05;;;3.72;;
52488;SDS011;38399;52.236;104.280;2022-10-22T02:34:57;8.27;;;4.47;;
52488;SDS011;38399;52.236;104.280;2022-10-22T02:37:25;12.93;;;6.80;;
52488;SDS011;38399;52.236;104.280;2022-10-22T02:39:53;18.10;;;9.13;;
52488;SDS011;38399;52.236;104.280;2022-10-22T02:42:22;19.45;;;8.77;;
52488;SDS011;38399;52.236;104.280;2022-10-22T02:44:50;17.35;;;8.02;;
52488;SDS011;38399;52.236;104.280;2022-10-22T02:47:16;17.00;;;8.65;;
52488;SDS011;38399;52.236;104.280;2022-10-22T02:49:42;17.40;;;8.23;;
52488;SDS011;38399;52.236;104.280;2022-10-22T02:52:09;14.88;;;6.35;;
52488;SDS011;38399;52.236;104.280;2022-10-22T02:54:35;11.07;;;6.30;;
52488;SDS011;38399;52.236;104.280;2022-10-22T02:57:01;10.68;;;7.05;;
52488;SDS011;38399;52.236;104.280;2022-10-22T02:59:27;12.63;;;5.68;;
52488;SDS011;38399;52.236;104.280;2022-10-22T03:01:54;12.20;;;5.90;;
52488;SDS011;38399;52.236;104.280;2022-10-22T03:04:20;9.65;;;5.68;;
52488;SDS011;38399;52.236;104.280;2022-10-22T03:06:46;10.18;;;7.15;;
52488;SDS011;38399;52.236;104.280;2022-10-22T03:09:13;13.43;;;6.47;;
52488;SDS011;38399;52.236;104.280;2022-10-22T03:11:39;11.18;;;6.50;;
52488;SDS011;38399;52.236;104.280;2022-10-22T03:14:06;17.98;;;10.10;;
52488;SDS011;38399;52.236;104.280;2022-10-22T03:16:32;9.70;;;6.63;;
52488;SDS011;38399;52.236;104.280;2022-10-22T03:18:58;9.68;;;6.15;;
52488;SDS011;38399;52.236;104.280;2022-10-22T03:24:09;6.82;;;5.35;;
52488;SDS011;38399;52.236;104.280;2022-10-22T03:26:38;9.60;;;5.43;;
52488;SDS011;38399;52.236;104.280;2022-10-22T03:29:07;10.57;;;6.63;;
52488;SDS011;38399;52.236;104.280;2022-10-22T03:31:35;13.25;;;6.57;;
52488;SDS011;38399;52.236;104.280;2022-10-22T03:36:28;9.25;;;6.35;;
52488;SDS011;38399;52.236;104.280;2022-10-22T03:38:54;7.15;;;5.90;;
52488;SDS011;38399;52.236;104.280;2022-10-22T03:41:20;8.68;;;5.85;;
52488;SDS011;38399;52.236;104.280;2022-10-22T03:43:46;8.20;;;4.85;;
52488;SDS011;38399;52.236;104.280;2022-10-22T03:46:17;7.65;;;4.72;;
52488;SDS011;38399;52.236;104.280;2022-10-22T03:48:44;5.53;;;4.50;;
52488;SDS011;38399;52.236;104.280;2022-10-22T03:51:11;11.13;;;4.70;;
52488;SDS011;38399;52.236;104.280;2022-10-22T03:53:37;7.85;;;4.10;;
52488;SDS011;38399;52.236;104.280;2022-10-22T03:56:07;9.60;;;4.82;;
52488;SDS011;38399;52.236;104.280;2022-10-22T03:58:35;7.80;;;4.97;;
52488;SDS011;38399;52.236;104.280;2022-10-22T04:01:03;10.30;;;3.95;;
52488;SDS011;38399;52.236;104.280;2022-10-22T04:03:31;8.90;;;3.63;;
52488;SDS011;38399;52.236;104.280;2022-10-22T04:06:04;7.45;;;3.83;;
52488;SDS011;38399;52.236;104.280;2022-10-22T04:08:33;5.22;;;2.90;;
52488;SDS011;38399;52.236;104.280;2022-10-22T04:10:59;7.20;;;3.25;;
52488;SDS011;38399;52.236;104.280;2022-10-22T04:13:27;8.25;;;3.35;;
52488;SDS011;38399;52.236;104.280;2022-10-22T04:15:53;7.30;;;3.25;;
52488;SDS011;38399;52.236;104.280;2022-10-22T04:18:20;5.68;;;3.35;;
52488;SDS011;38399;52.236;104.280;2022-10-22T04:20:47;7.97;;;2.80;;
52488;SDS011;38399;52.236;104.280;2022-10-22T04:23:16;8.07;;;3.20;;
52488;SDS011;38399;52.236;104.280;2022-10-22T04:25:42;6.88;;;3.65;;
52488;SDS011;38399;52.236;104.280;2022-10-22T04:28:08;6.25;;;3.17;;
52488;SDS011;38399;52.236;104.280;2022-10-22T04:30:35;11.15;;;3.03;;
52488;SDS011;38399;52.236;104.280;2022-10-22T04:33:01;6.30;;;3.00;;
52488;SDS011;38399;52.236;104.280;2022-10-22T04:35:28;4.80;;;2.50;;
52488;SDS011;38399;52.236;104.280;2022-10-22T04:37:55;5.43;;;2.97;;
52488;SDS011;38399;52.236;104.280;2022-10-22T04:40:21;5.88;;;2.90;;
52488;SDS011;38399;52.236;104.280;2022-10-22T04:42:48;7.93;;;4.40;;
52488;SDS011;38399;52.236;104.280;2022-10-22T04:45:14;6.22;;;2.63;;
52488;SDS011;38399;52.236;104.280;2022-10-22T04:47:41;6.55;;;2.47;;
52488;SDS011;38399;52.236;104.280;2022-10-22T04:50:07;6.35;;;2.85;;
52488;SDS011;38399;52.236;104.280;2022-10-22T04:52:34;5.97;;;2.80;;
52488;SDS011;38399;52.236;104.280;2022-10-22T04:55:00;4.97;;;2.40;;
52488;SDS011;38399;52.236;104.280;2022-10-22T04:57:28;5.78;;;2.30;;
52488;SDS011;38399;52.236;104.280;2022-10-22T04:59:55;2.90;;;2.17;;
52488;SDS011;38399;52.236;104.280;2022-10-22T05:04:47;3.75;;;2.13;;
52488;SDS011;38399;52.236;104.280;2022-10-22T05:07:14;5.00;;;2.72;;
52488;SDS011;38399;52.236;104.280;2022-10-22T05:09:40;4.72;;;2.17;;
52488;SDS011;38399;52.236;104.280;2022-10-22T05:12:06;3.88;;;2.10;;
52488;SDS011;38399;52.236;104.280;2022-10-22T05:14:32;3.70;;;2.17;;
52488;SDS011;38399;52.236;104.280;2022-10-22T05:16:59;3.70;;;2.50;;
52488;SDS011;38399;52.236;104.280;2022-10-22T05:19:26;2.35;;;1.80;;
52488;SDS011;38399;52.236;104.280;2022-10-22T05:21:59;2.95;;;1.92;;
52488;SDS011;38399;52.236;104.280;2022-10-22T05:24:27;5.93;;;2.10;;
52488;SDS011;38399;52.236;104.280;2022-10-22T05:26:55;2.65;;;1.10;;
52488;SDS011;38399;52.236;104.280;2022-10-22T05:29:23;1.83;;;1.30;;
52488;SDS011;38399;52.236;104.280;2022-10-22T05:31:51;1.95;;;1.38;;
52488;SDS011;38399;52.236;104.280;2022-10-22T05:34:18;2.95;;;1.33;;
52488;SDS011;38399;52.236;104.280;2022-10-22T05:36:44;5.72;;;2.03;;
52488;SDS011;38399;52.236;104.280;2022-10-22T05:39:10;5.70;;;2.10;;
52488;SDS011;38399;52.236;104.280;2022-10-22T05:44:04;4.90;;;2.17;;
52488;SDS011;38399;52.236;104.280;2022-10-22T05:48:59;4.55;;;1.70;;
52488;SDS011;38399;52.236;104.280;2022-10-22T05:51:30;2.65;;;1.70;;
52488;SDS011;38399;52.236;104.280;2022-10-22T05:53:58;4.95;;;2.08;;
52488;SDS011;38399;52.236;104.280;2022-10-22T05:56:27;2.72;;;1.45;;
52488;SDS011;38399;52.236;104.280;2022-10-22T05:58:54;3.25;;;1.83;;
52488;SDS011;38399;52.236;104.280;2022-10-22T06:01:22;4.13;;;1.98;;
52488;SDS011;38399;52.236;104.280;2022-10-22T06:03:53;5.22;;;1.80;;
52488;SDS011;38399;52.236;104.280;2022-10-22T06:11:43;2.25;;;1.95;;
52488;SDS011;38399;52.236;104.280;2022-10-22T06:14:10;4.10;;;2.40;;
52488;SDS011;38399;52.236;104.280;2022-10-22T06:16:37;2.78;;;1.88;;
52488;SDS011;38399;52.236;104.280;2022-10-22T06:19:03;3.95;;;2.13;;
52488;SDS011;38399;52.236;104.280;2022-10-22T06:21:30;5.43;;;2.53;;
52488;SDS011;38399;52.236;104.280;2022-10-22T06:23:58;3.00;;;2.28;;
52488;SDS011;38399;52.236;104.280;2022-10-22T06:26:26;3.55;;;2.13;;
52488;SDS011;38399;52.236;104.280;2022-10-22T06:31:20;4.88;;;2.30;;
52488;SDS011;38399;52.236;104.280;2022-10-22T06:33:46;3.85;;;2.10;;
52488;SDS011;38399;52.236;104.280;2022-10-22T06:36:14;4.13;;;2.42;;
52488;SDS011;38399;52.236;104.280;2022-10-22T06:38:42;9.40;;;2.45;;
52488;SDS011;38399;52.236;104.280;2022-10-22T06:41:13;2.47;;;1.75;;
52488;SDS011;38399;52.236;104.280;2022-10-22T06:43:43;4.82;;;1.90;;
52488;SDS011;38399;52.236;104.280;2022-10-22T06:46:11;3.70;;;2.05;;
52488;SDS011;38399;52.236;104.280;2022-10-22T06:48:40;3.10;;;2.00;;
52488;SDS011;38399;52.236;104.280;2022-10-22T06:51:08;3.58;;;1.65;;
52488;SDS011;38399;52.236;104.280;2022-10-22T06:53:37;2.80;;;1.30;;
52488;SDS011;38399;52.236;104.280;2022-10-22T06:56:06;1.77;;;1.27;;
52488;SDS011;38399;52.236;104.280;2022-10-22T06:58:34;1.70;;;1.60;;
52488;SDS011;38399;52.236;104.280;2022-10-22T07:01:04;4.57;;;1.50;;
52488;SDS011;38399;52.236;104.280;2022-10-22T07:03:33;3.65;;;1.83;;
52488;SDS011;38399;52.236;104.280;2022-10-22T07:06:00;2.33;;;1.20;;
52488;SDS011;38399;52.236;104.280;2022-10-22T07:08:29;4.60;;;1.80;;
52488;SDS011;38399;52.236;104.280;2022-10-22T07:10:56;2.30;;;1.42;;
52488;SDS011;38399;52.236;104.280;2022-10-22T07:13:30;2.85;;;1.40;;
52488;SDS011;38399;52.236;104.280;2022-10-22T07:15:56;3.60;;;1.83;;
52488;SDS011;38399;52.236;104.280;2022-10-22T07:18:22;3.13;;;1.80;;
52488;SDS011;38399;52.236;104.280;2022-10-22T07:20:48;3.70;;;1.67;;
52488;SDS011;38399;52.236;104.280;2022-10-22T07:23:15;5.07;;;2.55;;
52488;SDS011;38399;52.236;104.280;2022-10-22T07:25:41;2.63;;;1.50;;
52488;SDS011;38399;52.236;104.280;2022-10-22T07:28:09;3.53;;;1.52;;
52488;SDS011;38399;52.236;104.280;2022-10-22T07:30:35;2.78;;;1.60;;
52488;SDS011;38399;52.236;104.280;2022-10-22T07:33:03;3.83;;;1.65;;
52488;SDS011;38399;52.236;104.280;2022-10-22T07:35:30;6.93;;;2.45;;
52488;SDS011;38399;52.236;104.280;2022-10-22T07:37:57;5.13;;;2.15;;
52488;SDS011;38399;52.236;104.280;2022-10-22T07:40:23;5.15;;;1.88;;
52488;SDS011;38399;52.236;104.280;2022-10-22T07:42:50;3.38;;;1.85;;
52488;SDS011;38399;52.236;104.280;2022-10-22T07:45:16;7.03;;;1.98;;
52488;SDS011;38399;52.236;104.280;2022-10-22T07:50:09;3.40;;;1.85;;
52488;SDS011;38399;52.236;104.280;2022-10-22T07:52:35;3.90;;;1.60;;
52488;SDS011;38399;52.236;104.280;2022-10-22T07:55:02;2.78;;;1.80;;
52488;SDS011;38399;52.236;104.280;2022-10-22T07:57:28;3.90;;;1.80;;
52488;SDS011;38399;52.236;104.280;2022-10-22T07:59:55;3.10;;;1.65;;
52488;SDS011;38399;52.236;104.280;2022-10-22T08:02:25;3.60;;;1.85;;
52488;SDS011;38399;52.236;104.280;2022-10-22T08:04:51;2.92;;;1.58;;
52488;SDS011;38399;52.236;104.280;2022-10-22T08:07:18;6.40;;;1.63;;
52488;SDS011;38399;52.236;104.280;2022-10-22T08:09:44;3.30;;;2.13;;
52488;SDS011;38399;52.236;104.280;2022-10-22T08:14:37;2.67;;;1.75;;
52488;SDS011;38399;52.236;104.280;2022-10-22T08:17:04;2.28;;;1.77;;
52488;SDS011;38399;52.236;104.280;2022-10-22T08:19:30;2.10;;;1.55;;
52488;SDS011;38399;52.236;104.280;2022-10-22T08:21:57;3.17;;;1.80;;
52488;SDS011;38399;52.236;104.280;2022-10-22T08:24:24;2.25;;;1.98;;
52488;SDS011;38399;52.236;104.280;2022-10-22T08:26:52;3.13;;;1.65;;
52488;SDS011;38399;52.236;104.280;2022-10-22T08:29:21;3.65;;;1.70;;
52488;SDS011;38399;52.236;104.280;2022-10-22T08:31:51;3.95;;;2.42;;
52488;SDS011;38399;52.236;104.280;2022-10-22T08:34:18;4.00;;;2.38;;
52488;SDS011;38399;52.236;104.280;2022-10-22T08:36:46;6.57;;;2.00;;
52488;SDS011;38399;52.236;104.280;2022-10-22T08:39:12;3.13;;;2.30;;
52488;SDS011;38399;52.236;104.280;2022-10-22T08:41:45;7.35;;;2.95;;
52488;SDS011;38399;52.236;104.280;2022-10-22T08:49:32;5.30;;;2.90;;
52488;SDS011;38399;52.236;104.280;2022-10-22T08:52:01;4.22;;;2.15;;
52488;SDS011;38399;52.236;104.280;2022-10-22T09:02:36;4.50;;;2.17;;
52488;SDS011;38399;52.236;104.280;2022-10-22T09:08:10;3.63;;;2.17;;
52488;SDS011;38399;52.236;104.280;2022-10-22T09:10:39;4.82;;;2.70;;
52488;SDS011;38399;52.236;104.280;2022-10-22T09:13:10;7.75;;;3.38;;
52488;SDS011;38399;52.236;104.280;2022-10-22T09:15:43;3.45;;;2.50;;
52488;SDS011;38399;52.236;104.280;2022-10-22T09:18:18;4.10;;;2.53;;
52488;SDS011;38399;52.236;104.280;2022-10-22T09:20:55;5.55;;;2.60;;
52488;SDS011;38399;52.236;104.280;2022-10-22T09:25:56;5.57;;;2.88;;
52488;SDS011;38399;52.236;104.280;2022-10-22T09:28:24;4.80;;;2.70;;
52488;SDS011;38399;52.236;104.280;2022-10-22T09:30:50;4.88;;;3.00;;
52488;SDS011;38399;52.236;104.280;2022-10-22T09:33:24;4.45;;;2.58;;
52488;SDS011;38399;52.236;104.280;2022-10-22T09:35:57;3.63;;;2.17;;
52488;SDS011;38399;52.236;104.280;2022-10-22T09:38:32;7.35;;;2.75;;
52488;SDS011;38399;52.236;104.280;2022-10-22T09:41:04;7.07;;;3.75;;
52488;SDS011;38399;52.236;104.280;2022-10-22T09:43:30;5.75;;;2.55;;
52488;SDS011;38399;52.236;104.280;2022-10-22T09:46:05;6.78;;;2.58;;
52488;SDS011;38399;52.236;104.280;2022-10-22T09:51:16;4.15;;;1.63;;
52488;SDS011;38399;52.236;104.280;2022-10-22T09:54:01;10.30;;;2.80;;
52488;SDS011;38399;52.236;104.280;2022-10-22T09:56:39;5.82;;;3.22;;
52488;SDS011;38399;52.236;104.280;2022-10-22T09:59:16;7.22;;;3.90;;
52488;SDS011;38399;52.236;104.280;2022-10-22T10:01:55;10.98;;;3.30;;
52488;SDS011;38399;52.236;104.280;2022-10-22T10:04:31;6.93;;;2.53;;
52488;SDS011;38399;52.236;104.280;2022-10-22T10:06:59;6.10;;;2.90;;
52488;SDS011;38399;52.236;104.280;2022-10-22T10:09:26;10.77;;;3.53;;
52488;SDS011;38399;52.236;104.280;2022-10-22T10:12:06;6.53;;;3.47;;
52488;SDS011;38399;52.236;104.280;2022-10-22T10:14:59;5.68;;;2.60;;
52488;SDS011;38399;52.236;104.280;2022-10-22T10:17:42;7.22;;;3.03;;
52488;SDS011;38399;52.236;104.280;2022-10-22T10:23:09;8.38;;;3.90;;
52488;SDS011;38399;52.236;104.280;2022-10-22T10:32:02;7.95;;;4.10;;
52488;SDS011;38399;52.236;104.280;2022-10-22T10:40:17;9.68;;;4.00;;
52488;SDS011;38399;52.236;104.280;2022-10-22T10:42:59;11.13;;;4.10;;
52488;SDS011;38399;52.236;104.280;2022-10-22T10:45:42;7.82;;;3.83;;
52488;SDS011;38399;52.236;104.280;2022-10-22T10:51:52;3.97;;;2.85;;
52488;SDS011;38399;52.236;104.280;2022-10-22T10:54:24;6.40;;;3.92;;
52488;SDS011;38399;52.236;104.280;2022-10-22T11:05:12;8.82;;;4.13;;
52488;SDS011;38399;52.236;104.280;2022-10-22T11:07:48;10.75;;;4.47;;
52488;SDS011;38399;52.236;104.280;2022-10-22T11:16:09;12.57;;;4.38;;
52488;SDS011;38399;52.236;104.280;2022-10-22T11:18:48;11.23;;;5.00;;
52488;SDS011;38399;52.236;104.280;2022-10-22T11:21:26;18.00;;;9.70;;
52488;SDS011;38399;52.236;104.280;2022-10-22T11:26:52;15.93;;;7.05;;
52488;SDS011;38399;52.236;104.280;2022-10-22T11:29:39;18.27;;;8.38;;
52488;SDS011;38399;52.236;104.280;2022-10-22T11:32:11;23.25;;;9.25;;
52488;SDS011;38399;52.236;104.280;2022-10-22T11:34:49;29.83;;;10.90;;
52488;SDS011;38399;52.236;104.280;2022-10-22T11:37:19;18.05;;;8.15;;
52488;SDS011;38399;52.236;104.280;2022-10-22T11:39:58;21.67;;;9.88;;
52488;SDS011;38399;52.236;104.280;2022-10-22T11:42:48;19.27;;;7.90;;
52488;SDS011;38399;52.236;104.280;2022-10-22T11:58:41;22.35;;;8.85;;
52488;SDS011;38399;52.236;104.280;2022-10-22T12:03:42;17.02;;;8.75;;
52488;SDS011;38399;52.236;104.280;2022-10-22T12:06:40;21.92;;;10.15;;
52488;SDS011;38399;52.236;104.280;2022-10-22T12:09:17;15.70;;;7.70;;
52488;SDS011;38399;52.236;104.280;2022-10-22T12:11:46;16.80;;;6.97;;
52488;SDS011;38399;52.236;104.280;2022-10-22T12:14:20;13.43;;;6.75;;
52488;SDS011;38399;52.236;104.280;2022-10-22T12:16:58;11.93;;;6.85;;
52488;SDS011;38399;52.236;104.280;2022-10-22T12:19:46;9.18;;;5.45;;
52488;SDS011;38399;52.236;104.280;2022-10-22T12:22:22;13.07;;;6.43;;
52488;SDS011;38399;52.236;104.280;2022-10-22T12:24:53;10.43;;;4.80;;
52488;SDS011;38399;52.236;104.280;2022-10-22T12:27:27;7.07;;;4.15;;
52488;SDS011;38399;52.236;104.280;2022-10-22T12:30:19;9.43;;;4.70;;
52488;SDS011;38399;52.236;104.280;2022-10-22T12:32:50;7.05;;;4.30;;
52488;SDS011;38399;52.236;104.280;2022-10-22T12:35:26;5.55;;;3.10;;
52488;SDS011;38399;52.236;104.280;2022-10-22T12:38:00;4.10;;;2.22;;
52488;SDS011;38399;52.236;104.280;2022-10-22T12:40:33;4.85;;;3.15;;
52488;SDS011;38399;52.236;104.280;2022-10-22T12:43:03;4.90;;;2.58;;
52488;SDS011;38399;52.236;104.280;2022-10-22T12:45:37;5.78;;;3.15;;
52488;SDS011;38399;52.236;104.280;2022-10-22T12:48:05;5.90;;;2.90;;
52488;SDS011;38399;52.236;104.280;2022-10-22T12:50:53;9.88;;;3.47;;
52488;SDS011;38399;52.236;104.280;2022-10-22T12:53:26;6.60;;;3.08;;
52488;SDS011;38399;52.236;104.280;2022-10-22T12:56:05;6.30;;;3.22;;
52488;SDS011;38399;52.236;104.280;2022-10-22T12:58:38;7.78;;;3.50;;
52488;SDS011;38399;52.236;104.280;2022-10-22T13:01:06;4.72;;;2.75;;
52488;SDS011;38399;52.236;104.280;2022-10-22T13:03:36;5.68;;;3.92;;
52488;SDS011;38399;52.236;104.280;2022-10-22T13:08:55;5.97;;;2.45;;
52488;SDS011;38399;52.236;104.280;2022-10-22T13:11:41;5.97;;;2.85;;
52488;SDS011;38399;52.236;104.280;2022-10-22T13:17:09;4.00;;;2.38;;
52488;SDS011;38399;52.236;104.280;2022-10-22T13:19:43;4.90;;;2.75;;
52488;SDS011;38399;52.236;104.280;2022-10-22T13:28:09;4.82;;;2.80;;
52488;SDS011;38399;52.236;104.280;2022-10-22T13:30:36;11.38;;;2.67;;
52488;SDS011;38399;52.236;104.280;2022-10-22T13:35:48;5.97;;;3.40;;
52488;SDS011;38399;52.236;104.280;2022-10-22T13:40:43;5.20;;;2.22;;
52488;SDS011;38399;52.236;104.280;2022-10-22T13:43:11;7.45;;;2.60;;
52488;SDS011;38399;52.236;104.280;2022-10-22T13:45:37;6.32;;;2.10;;
52488;SDS011;38399;52.236;104.280;2022-10-22T13:48:04;5.13;;;2.47;;
52488;SDS011;38399;52.236;104.280;2022-10-22T13:52:58;4.65;;;2.80;;
52488;SDS011;38399;52.236;104.280;2022-10-22T13:55:26;7.60;;;2.92;;
52488;SDS011;38399;52.236;104.280;2022-10-22T13:57:59;15.43;;;3.40;;
52488;SDS011;38399;52.236;104.280;2022-10-22T14:00:43;5.28;;;2.60;;
52488;SDS011;38399;52.236;104.280;2022-10-22T14:03:12;6.20;;;3.95;;
52488;SDS011;38399;52.236;104.280;2022-10-22T14:05:41;5.53;;;2.90;;
52488;SDS011;38399;52.236;104.280;2022-10-22T14:08:16;3.88;;;2.58;;
52488;SDS011;38399;52.236;104.280;2022-10-22T14:10:46;4.90;;;2.53;;
52488;SDS011;38399;52.236;104.280;2022-10-22T14:13:14;4.35;;;2.55;;
52488;SDS011;38399;52.236;104.280;2022-10-22T14:15:42;5.88;;;2.53;;
52488;SDS011;38399;52.236;104.280;2022-10-22T14:18:19;4.15;;;2.22;;
52488;SDS011;38399;52.236;104.280;2022-10-22T14:20:53;6.30;;;2.05;;
52488;SDS011;38399;52.236;104.280;2022-10-22T14:23:22;2.72;;;2.05;;
52488;SDS011;38399;52.236;104.280;2022-10-22T14:25:50;4.18;;;2.50;;
52488;SDS011;38399;52.236;104.280;2022-10-22T14:28:17;4.65;;;2.30;;
52488;SDS011;38399;52.236;104.280;2022-10-22T14:30:43;4.20;;;2.58;;
52488;SDS011;38399;52.236;104.280;2022-10-22T14:33:12;5.47;;;3.20;;
52488;SDS011;38399;52.236;104.280;2022-10-22T14:35:41;4.10;;;2.42;;
52488;SDS011;38399;52.236;104.280;2022-10-22T14:38:08;3.53;;;2.17;;
52488;SDS011;38399;52.236;104.280;2022-10-22T14:40:35;3.55;;;2.17;;
52488;SDS011;38399;52.236;104.280;2022-10-22T14:43:08;5.45;;;2.67;;
52488;SDS011;38399;52.236;104.280;2022-10-22T14:45:36;4.22;;;2.42;;
52488;SDS011;38399;52.236;104.280;2022-10-22T14:48:03;2.55;;;1.95;;
52488;SDS011;38399;52.236;104.280;2022-10-22T14:50:30;3.42;;;2.05;;
52488;SDS011;38399;52.236;104.280;2022-10-22T14:52:56;4.25;;;2.65;;
52488;SDS011;38399;52.236;104.280;2022-10-22T14:55:24;3.33;;;2.33;;
52488;SDS011;38399;52.236;104.280;2022-10-22T14:57:52;4.30;;;2.13;;
52488;SDS011;38399;52.236;104.280;2022-10-22T15:00:19;3.33;;;2.20;;
52488;SDS011;38399;52.236;104.280;2022-10-22T15:02:47;3.83;;;2.03;;
52488;SDS011;38399;52.236;104.280;2022-10-22T15:05:13;2.97;;;2.15;;
52488;SDS011;38399;52.236;104.280;2022-10-22T15:07:40;5.72;;;2.17;;
52488;SDS011;38399;52.236;104.280;2022-10-22T15:10:07;3.10;;;1.85;;
52488;SDS011;38399;52.236;104.280;2022-10-22T15:12:33;3.20;;;2.10;;
52488;SDS011;38399;52.236;104.280;2022-10-22T15:15:00;4.03;;;2.10;;
52488;SDS011;38399;52.236;104.280;2022-10-22T15:17:28;4.13;;;2.22;;
52488;SDS011;38399;52.236;104.280;2022-10-22T15:19:54;3.40;;;2.08;;
52488;SDS011;38399;52.236;104.280;2022-10-22T15:22:24;4.03;;;2.13;;
52488;SDS011;38399;52.236;104.280;2022-10-22T15:24:50;5.43;;;2.58;;
52488;SDS011;38399;52.236;104.280;2022-10-22T15:27:18;6.70;;;2.80;;
52488;SDS011;38399;52.236;104.280;2022-10-22T15:29:45;4.13;;;2.70;;
52488;SDS011;38399;52.236;104.280;2022-10-22T15:32:11;7.07;;;2.75;;
52488;SDS011;38399;52.236;104.280;2022-10-22T15:34:38;7.90;;;3.20;;
52488;SDS011;38399;52.236;104.280;2022-10-22T15:37:06;9.52;;;3.17;;
52488;SDS011;38399;52.236;104.280;2022-10-22T15:39:37;6.28;;;3.72;;
52488;SDS011;38399;52.236;104.280;2022-10-22T15:42:05;8.35;;;3.55;;
52488;SDS011;38399;52.236;104.280;2022-10-22T15:44:31;7.10;;;3.00;;
52488;SDS011;38399;52.236;104.280;2022-10-22T15:46:58;3.28;;;2.00;;
52488;SDS011;38399;52.236;104.280;2022-10-22T15:49:28;4.20;;;2.13;;
52488;SDS011;38399;52.236;104.280;2022-10-22T15:51:54;2.70;;;2.10;;
52488;SDS011;38399;52.236;104.280;2022-10-22T15:54:22;5.60;;;2.00;;
52488;SDS011;38399;52.236;104.280;2022-10-22T15:56:50;7.50;;;2.72;;
52488;SDS011;38399;52.236;104.280;2022-10-22T15:59:16;4.93;;;2.58;;
52488;SDS011;38399;52.236;104.280;2022-10-22T16:01:43;4.60;;;2.17;;
52488;SDS011;38399;52.236;104.280;2022-10-22T16:04:10;4.72;;;2.65;;
52488;SDS011;38399;52.236;104.280;2022-10-22T16:06:38;8.48;;;2.88;;
52488;SDS011;38399;52.236;104.280;2022-10-22T16:09:16;4.60;;;1.75;;
52488;SDS011;38399;52.236;104.280;2022-10-22T16:11:44;4.40;;;2.05;;
52488;SDS011;38399;52.236;104.280;2022-10-22T16:14:11;4.60;;;1.58;;
52488;SDS011;38399;52.236;104.280;2022-10-22T16:16:44;3.30;;;1.60;;
52488;SDS011;38399;52.236;104.280;2022-10-22T16:19:12;2.60;;;1.67;;
52488;SDS011;38399;52.236;104.280;2022-10-22T16:21:40;3.65;;;1.60;;
52488;SDS011;38399;52.236;104.280;2022-10-22T16:24:07;2.45;;;1.80;;
52488;SDS011;38399;52.236;104.280;2022-10-22T16:26:34;3.22;;;1.70;;
52488;SDS011;38399;52.236;104.280;2022-10-22T16:29:02;6.30;;;2.20;;
52488;SDS011;38399;52.236;104.280;2022-10-22T16:31:30;3.05;;;1.67;;
52488;SDS011;38399;52.236;104.280;2022-10-22T16:33:58;3.45;;;1.65;;
52488;SDS011;38399;52.236;104.280;2022-10-22T16:36:24;2.85;;;1.80;;
52488;SDS011;38399;52.236;104.280;2022-10-22T16:38:50;2.95;;;1.67;;
52488;SDS011;38399;52.236;104.280;2022-10-22T16:41:17;2.53;;;1.42;;
52488;SDS011;38399;52.236;104.280;2022-10-22T16:43:46;1.77;;;1.33;;
52488;SDS011;38399;52.236;104.280;2022-10-22T16:46:17;2.65;;;1.88;;
52488;SDS011;38399;52.236;104.280;2022-10-22T16:48:46;3.90;;;1.48;;
52488;SDS011;38399;52.236;104.280;2022-10-22T16:51:14;2.60;;;1.52;;
52488;SDS011;38399;52.236;104.280;2022-10-22T16:53:43;2.47;;;1.70;;
52488;SDS011;38399;52.236;104.280;2022-10-22T16:56:10;2.72;;;1.58;;
52488;SDS011;38399;52.236;104.280;2022-10-22T16:58:41;5.22;;;2.10;;
52488;SDS011;38399;52.236;104.280;2022-10-22T17:01:10;2.25;;;1.90;;
52488;SDS011;38399;52.236;104.280;2022-10-22T17:03:36;1.83;;;1.25;;
52488;SDS011;38399;52.236;104.280;2022-10-22T17:06:03;3.70;;;1.80;;